Time;durP1;ratioP1;P1;durP2;ratioP2;P2;SDS_P1;SDS_P2;PMS_P1;PMS_P2;Temp;Humidity;BMP_temperature;BMP_pressure;BME280_temperature;BME280_humidity;BME280_pressure;Samples;Min_cycle;Max_cycle;Signal;HPM_P1;HPM_P2
2023/08/31 00:00:37;;;;;;;;;;;16.30;61.50;;;11.92;100.00;95111.47;5004166;28;20372;-55
2023/08/31 00:03:03;;;;;;;;;;;16.30;61.50;;;11.97;100.00;95118.59;5012143;28;19913;-50
2023/08/31 00:05:30;;;;;;;;;;;16.40;61.70;;;11.99;100.00;95116.44;5011228;28;20314;-54
2023/08/31 00:07:56;;;;;;;;;;;16.40;61.70;;;12.03;100.00;95118.28;5012376;28;20038;-53
2023/08/31 00:10:23;;;;;;;;;;;16.40;61.70;;;12.06;100.00;95119.56;4999954;28;19991;-52
2023/08/31 00:12:49;;;;;;;;;;;16.40;61.80;;;12.10;100.00;95114.47;5007228;28;20376;-51
2023/08/31 00:15:15;;;;;;;;;;;16.50;61.90;;;12.14;100.00;95118.16;5005343;28;19959;-54
2023/08/31 00:17:42;;;;;;;;;;;16.50;62.00;;;12.13;100.00;95116.59;5005486;28;19991;-53
2023/08/31 00:20:11;;;;;;;;;;;16.50;62.00;;;12.16;100.00;95118.66;5005846;28;19909;-55
2023/08/31 00:22:37;;;;;;;;;;;16.60;62.00;;;12.20;100.00;95117.03;4999584;28;19913;-53
2023/08/31 00:25:08;;;;;;;;;;;16.60;62.10;;;12.26;100.00;95118.56;4995010;28;19909;-53
2023/08/31 00:27:36;;;;;;;;;;;16.60;62.30;;;12.35;100.00;95111.50;5013329;28;19908;-50
2023/08/31 00:30:08;;;;;;;;;;;16.60;62.40;;;12.42;100.00;95116.47;5016881;28;19909;-51
2023/08/31 00:32:34;;;;;;;;;;;16.70;62.50;;;12.47;100.00;95108.38;5018386;28;20007;-53
2023/08/31 00:35:00;;;;;;;;;;;16.80;62.50;;;12.51;100.00;95117.44;5005470;28;19909;-49
2023/08/31 00:37:26;;;;;;;;;;;16.80;62.50;;;12.52;100.00;95113.66;5017766;28;19916;-50
2023/08/31 00:39:52;;;;;;;;;;;16.80;62.30;;;12.55;100.00;95114.97;5005441;28;20434;-55
2023/08/31 00:42:18;;;;;;;;;;;16.80;62.20;;;12.57;100.00;95110.94;5017630;28;20364;-51
2023/08/31 00:44:46;;;;;;;;;;;16.80;62.20;;;12.57;100.00;95110.94;5014220;28;19909;-51
2023/08/31 00:47:14;;;;;;;;;;;16.90;62.30;;;12.60;100.00;95110.38;5009332;28;20000;-45
2023/08/31 00:49:41;;;;;;;;;;;16.90;62.30;;;12.64;100.00;95114.03;4994622;28;19918;-48
2023/08/31 00:52:07;;;;;;;;;;;16.90;62.20;;;12.65;100.00;95115.63;5008465;28;19932;-52
2023/08/31 00:54:35;;;;;;;;;;;16.90;62.20;;;12.67;100.00;95110.00;5017050;28;20478;-51
2023/08/31 00:57:01;;;;;;;;;;;16.90;62.20;;;12.67;100.00;95113.47;5011968;28;20272;-51
2023/08/31 00:59:26;;;;;;;;;;;17.00;62.20;;;12.66;100.00;95106.53;5008503;28;19915;-49
2023/08/31 01:02:16;;;;;;;;;;;17.00;62.10;;;12.67;100.00;95113.47;5005465;28;19913;-49
2023/08/31 01:05:08;;;;;;;;;;;17.00;62.10;;;12.65;100.00;95104.13;5005259;28;19916;-51
2023/08/31 01:07:40;;;;;;;;;;;16.90;61.90;;;12.64;100.00;95115.91;5008269;28;19915;-52
2023/08/31 01:10:26;;;;;;;;;;;16.90;61.90;;;12.60;100.00;95118.38;5013537;28;20379;-51
2023/08/31 01:13:03;;;;;;;;;;;16.90;61.80;;;12.57;100.00;95113.59;4991491;28;19917;-50
2023/08/31 01:15:32;;;;;;;;;;;16.90;61.80;;;12.55;100.00;95112.31;5017289;28;20375;-50
2023/08/31 01:18:01;;;;;;;;;;;16.90;61.80;;;12.52;100.00;95112.88;5014248;28;19952;-49
2023/08/31 01:20:58;;;;;;;;;;;16.90;61.80;;;12.49;100.00;95111.56;4994596;28;19909;-49
2023/08/31 01:23:46;;;;;;;;;;;16.80;61.70;;;12.44;100.00;95103.63;4975972;28;20412;-49
2023/08/31 01:26:12;;;;;;;;;;;16.80;61.70;;;12.41;100.00;95106.84;4999172;28;20268;-49
2023/08/31 01:28:39;;;;;;;;;;;16.80;61.80;;;12.40;100.00;95113.28;5008700;28;19909;-50
2023/08/31 01:31:07;;;;;;;;;;;16.70;61.80;;;12.37;100.00;95120.00;5004616;28;19962;-48
2023/08/31 01:33:33;;;;;;;;;;;16.70;61.90;;;12.36;100.00;95117.63;5018246;28;19916;-49
2023/08/31 01:36:08;;;;;;;;;;;16.70;61.90;;;12.35;100.00;95118.72;5002572;28;19910;-48
2023/08/31 01:38:38;;;;;;;;;;;16.70;62.00;;;12.33;100.00;95115.53;4997290;28;19963;-50
2023/08/31 01:41:10;;;;;;;;;;;16.70;62.10;;;12.34;100.00;95125.13;4992188;28;19913;-50
2023/08/31 01:43:37;;;;;;;;;;;16.70;62.10;;;12.35;100.00;95121.38;5000099;28;19916;-49
2023/08/31 01:46:03;;;;;;;;;;;16.70;62.20;;;12.37;100.00;95116.53;4984689;28;19916;-51
2023/08/31 01:48:29;;;;;;;;;;;16.70;62.20;;;12.37;100.00;95125.34;5001367;28;20004;-51
2023/08/31 01:50:55;;;;;;;;;;;16.70;62.20;;;12.38;100.00;95128.78;5015049;28;19999;-49
2023/08/31 01:53:21;;;;;;;;;;;16.80;62.30;;;12.40;100.00;95134.66;5001589;28;19945;-47
2023/08/31 01:55:46;;;;;;;;;;;16.80;62.30;;;12.42;100.00;95138.63;5001998;28;20012;-49
2023/08/31 01:58:12;;;;;;;;;;;16.80;62.30;;;12.43;100.00;95126.88;5001538;28;19909;-50
2023/08/31 02:00:38;;;;;;;;;;;16.80;62.30;;;12.45;100.00;95132.72;5009088;28;19913;-50
2023/08/31 02:03:05;;;;;;;;;;;16.80;62.30;;;12.46;100.00;95136.97;5014274;28;20386;-50
2023/08/31 02:05:31;;;;;;;;;;;16.90;62.50;;;12.50;100.00;95140.69;4999996;28;19912;-54
2023/08/31 02:07:57;;;;;;;;;;;16.90;62.50;;;12.57;100.00;95142.22;5001967;28;19909;-52
2023/08/31 02:10:22;;;;;;;;;;;16.90;62.50;;;12.64;100.00;95139.97;5007784;28;19909;-54
2023/08/31 02:12:48;;;;;;;;;;;16.90;63.40;;;12.64;100.00;95135.41;5007219;28;19909;-53
2023/08/31 02:15:14;;;;;;;;;;;17.00;62.70;;;12.69;100.00;95139.88;5007342;28;19916;-55
2023/08/31 02:17:40;;;;;;;;;;;17.00;62.70;;;12.72;100.00;95140.13;5003843;28;20339;-55
2023/08/31 02:20:08;;;;;;;;;;;17.00;62.70;;;12.77;100.00;95141.91;5014306;28;20276;-54
2023/08/31 02:22:37;;;;;;;;;;;17.00;62.70;;;12.80;100.00;95148.56;5001305;28;20389;-53
2023/08/31 02:25:04;;;;;;;;;;;17.00;62.60;;;12.82;100.00;95149.09;5013700;28;20363;-53
2023/08/31 02:27:29;;;;;;;;;;;17.10;62.60;;;12.83;100.00;95164.03;5013691;28;20287;-51
2023/08/31 02:29:55;;;;;;;;;;;17.10;62.60;;;12.84;100.00;95158.38;5000961;28;19909;-54
2023/08/31 02:32:21;;;;;;;;;;;17.10;62.60;;;12.86;100.00;95152.75;5013455;28;19920;-55
2023/08/31 02:34:47;;;;;;;;;;;17.10;62.50;;;12.87;100.00;95154.34;5001713;28;19909;-54
2023/08/31 02:37:12;;;;;;;;;;;17.10;62.40;;;12.90;100.00;95154.56;5007840;28;19909;-54
2023/08/31 02:39:39;;;;;;;;;;;17.10;62.40;;;12.91;100.00;95156.16;5014161;28;19910;-54
2023/08/31 02:42:05;;;;;;;;;;;17.10;62.40;;;12.91;100.00;95156.16;5005357;28;19913;-51
2023/08/31 02:44:32;;;;;;;;;;;17.10;62.30;;;12.93;100.00;95151.31;5013734;28;19913;-53
2023/08/31 02:46:58;;;;;;;;;;;17.10;62.30;;;12.92;100.00;95155.06;5000913;28;19909;-52
2023/08/31 02:49:23;;;;;;;;;;;17.10;62.30;;;12.91;100.00;95158.00;5013101;28;20498;-53
2023/08/31 02:51:49;;;;;;;;;;;17.10;62.30;;;12.94;100.00;95152.91;5012908;28;20019;-51
2023/08/31 02:54:15;;;;;;;;;;;17.10;62.20;;;12.94;100.00;95154.75;5000478;28;19913;-53
2023/08/31 02:56:42;;;;;;;;;;;17.20;62.30;;;12.93;100.00;95159.31;5013756;28;19913;-53
2023/08/31 02:59:07;;;;;;;;;;;17.10;62.20;;;12.93;100.00;95164.66;5005562;28;19991;-54
2023/08/31 03:01:33;;;;;;;;;;;17.20;62.30;;;12.94;100.00;95157.44;5011766;28;20004;-54
2023/08/31 03:03:59;;;;;;;;;;;17.10;62.20;;;12.93;100.00;95156.66;5005248;28;19920;-50
2023/08/31 03:06:26;;;;;;;;;;;17.10;62.20;;;12.91;100.00;95158.84;5000020;28;19913;-53
2023/08/31 03:08:51;;;;;;;;;;;17.10;62.20;;;12.93;100.00;95156.66;5002481;28;19963;-51
2023/08/31 03:11:17;;;;;;;;;;;17.20;62.20;;;12.91;100.00;95153.50;4999113;28;19913;-48
2023/08/31 03:13:43;;;;;;;;;;;17.10;62.20;;;12.90;100.00;95154.56;5001767;28;20394;-49
2023/08/31 03:16:09;;;;;;;;;;;17.20;62.20;;;12.90;100.00;95154.56;5011616;28;19963;-53
2023/08/31 03:18:35;;;;;;;;;;;17.20;62.10;;;12.87;100.00;95163.16;4983094;28;20012;-54
2023/08/31 03:21:00;;;;;;;;;;;17.20;62.10;;;12.86;100.00;95160.78;5008319;28;20295;-53
2023/08/31 03:23:29;;;;;;;;;;;17.10;62.10;;;12.87;100.00;95162.34;5005767;28;20398;-51
2023/08/31 03:25:54;;;;;;;;;;;17.10;62.10;;;12.85;100.00;95165.34;5012943;28;19920;-51
2023/08/31 03:28:21;;;;;;;;;;;17.10;62.00;;;12.85;100.00;95176.03;5004498;28;20415;-49
2023/08/31 03:30:57;;;;;;;;;;;17.10;62.10;;;12.85;100.00;95168.00;5007797;28;19913;-50
2023/08/31 03:33:23;;;;;;;;;;;17.10;62.10;;;12.83;100.00;95164.03;5013118;28;19943;-51
2023/08/31 03:35:49;;;;;;;;;;;17.10;62.10;;;12.80;100.00;95162.72;4999895;28;20352;-54
2023/08/31 03:38:14;;;;;;;;;;;17.10;62.10;;;12.81;100.00;95161.63;5012885;28;19971;-53
2023/08/31 03:40:41;;;;;;;;;;;17.10;62.10;;;12.83;100.00;95167.50;4999485;28;19913;-55
2023/08/31 03:43:06;;;;;;;;;;;17.10;62.10;;;12.84;100.00;95158.38;5011519;28;19909;-52
2023/08/31 03:45:32;;;;;;;;;;;17.10;62.10;;;12.87;100.00;95167.72;4999403;28;19963;-51
2023/08/31 03:47:58;;;;;;;;;;;17.10;62.10;;;12.86;100.00;95163.44;5011554;28;19915;-55
2023/08/31 03:50:24;;;;;;;;;;;17.10;62.10;;;12.88;100.00;95172.78;5012402;28;19920;-50
2023/08/31 03:52:50;;;;;;;;;;;17.10;62.10;;;12.89;100.00;95174.34;5002998;28;19916;-49
2023/08/31 03:55:16;;;;;;;;;;;17.10;62.10;;;12.90;100.00;95177.81;5008036;28;19917;-48
2023/08/31 03:57:41;;;;;;;;;;;17.10;62.10;;;12.87;100.00;95173.06;5012845;28;19948;-47
2023/08/31 04:00:12;;;;;;;;;;;17.10;62.10;;;12.89;100.00;95179.72;5002351;28;20430;-51
2023/08/31 04:02:38;;;;;;;;;;;17.10;62.10;;;12.86;100.00;95174.16;5011539;28;20443;-50
2023/08/31 04:05:05;;;;;;;;;;;17.10;62.00;;;12.87;100.00;95189.88;4998984;28;20007;-54
2023/08/31 04:07:35;;;;;;;;;;;17.10;62.10;;;12.88;100.00;95196.00;4995482;28;19917;-50
2023/08/31 04:10:00;;;;;;;;;;;17.10;62.00;;;12.86;100.00;95192.84;5009804;28;19917;-52
2023/08/31 04:12:26;;;;;;;;;;;17.10;62.00;;;12.85;100.00;95196.59;5011651;28;19963;-54
2023/08/31 04:14:52;;;;;;;;;;;17.10;62.00;;;12.85;100.00;95197.41;5012150;28;19958;-56
2023/08/31 04:17:18;;;;;;;;;;;17.10;62.00;;;12.86;100.00;95203.53;5001450;28;19914;-48
2023/08/31 04:19:43;;;;;;;;;;;17.10;62.00;;;12.86;100.00;95199.00;5012141;28;19909;-52
2023/08/31 04:22:09;;;;;;;;;;;17.10;62.00;;;12.85;100.00;95196.59;5001657;28;19914;-54
2023/08/31 04:24:35;;;;;;;;;;;17.10;62.00;;;12.82;100.00;95200.66;5008673;28;20446;-55
2023/08/31 04:27:00;;;;;;;;;;;17.10;62.00;;;12.84;100.00;95203.03;5012398;28;20287;-54
2023/08/31 04:29:26;;;;;;;;;;;17.10;62.00;;;12.83;100.00;95210.25;4998157;28;19963;-55
2023/08/31 04:31:52;;;;;;;;;;;17.10;62.00;;;12.82;100.00;95202.53;5012242;28;19924;-51
2023/08/31 04:34:18;;;;;;;;;;;17.10;62.00;;;12.81;100.00;95212.41;5012094;28;19913;-54
2023/08/31 04:36:43;;;;;;;;;;;17.10;62.00;;;12.79;100.00;95213.81;5011004;28;19909;-52
2023/08/31 04:39:09;;;;;;;;;;;17.00;61.90;;;12.78;100.00;95217.53;5008355;28;19914;-55
2023/08/31 04:41:35;;;;;;;;;;;17.10;62.00;;;12.77;100.00;95226.66;5001999;28;20194;-51
2023/08/31 04:44:00;;;;;;;;;;;17.10;62.10;;;12.76;100.00;95227.75;5011826;28;20007;-49
2023/08/31 04:46:26;;;;;;;;;;;17.10;62.00;;;12.74;100.00;95222.66;5002150;28;19910;-50
2023/08/31 04:48:52;;;;;;;;;;;17.00;62.00;;;12.74;100.00;95223.47;5008198;28;20291;-51
2023/08/31 04:51:33;;;;;;;;;;;17.00;62.00;;;12.72;100.00;95220.28;5002352;28;19913;-54
2023/08/31 04:56:34;;;;;;;;;;;17.00;62.10;;;12.70;100.00;95245.72;5017501;28;19921;-54
2023/08/31 04:59:01;;;;;;;;;;;17.00;62.10;;;12.71;100.00;95245.41;5030906;28;20278;-49
2023/08/31 05:01:27;;;;;;;;;;;16.90;62.10;;;12.69;100.00;95244.91;5029786;28;19958;-46
2023/08/31 05:03:52;;;;;;;;;;;16.80;62.10;;;12.66;100.00;95260.69;5029671;28;20015;-51
2023/08/31 05:06:18;;;;;;;;;;;16.70;62.30;;;12.59;100.00;95257.59;5025137;28;20008;-49
2023/08/31 05:08:44;;;;;;;;;;;16.70;62.50;;;12.53;100.00;95256.84;5031433;28;19916;-49
2023/08/31 05:11:10;;;;;;;;;;;16.60;62.70;;;12.48;100.00;95262.25;5018997;28;19909;-52
2023/08/31 05:13:37;;;;;;;;;;;16.50;62.80;;;12.41;100.00;95259.94;5028821;28;19908;-48
2023/08/31 05:16:03;;;;;;;;;;;16.50;63.00;;;12.31;100.00;95256.53;5020740;28;19909;-47
2023/08/31 05:18:29;;;;;;;;;;;16.40;63.20;;;12.25;100.00;95258.47;5034344;28;19948;-47
2023/08/31 05:20:55;;;;;;;;;;;16.30;63.30;;;12.23;100.00;95260.66;5035085;28;19951;-47
2023/08/31 05:23:21;;;;;;;;;;;16.20;63.40;;;12.19;100.00;95270.28;5028294;28;19916;-47
2023/08/31 05:25:46;;;;;;;;;;;16.20;63.60;;;12.16;100.00;95269.00;5039920;28;19909;-53
2023/08/31 05:28:12;;;;;;;;;;;16.20;63.80;;;12.13;100.00;95269.56;5021716;28;20409;-45
2023/08/31 05:30:55;;;;;;;;;;;16.10;63.80;;;12.10;100.00;95261.31;5031860;28;20417;-49
2023/08/31 05:33:27;;;;;;;;;;;16.10;64.00;;;12.05;100.00;95275.50;5015092;28;19913;-51
2023/08/31 05:35:53;;;;;;;;;;;16.10;64.90;;;12.02;100.00;95281.38;5030244;28;20515;-48
2023/08/31 05:38:18;;;;;;;;;;;16.10;64.30;;;12.04;100.00;95274.69;5025627;28;19919;-49
2023/08/31 05:40:46;;;;;;;;;;;16.10;64.40;;;12.04;100.00;95273.91;5028670;28;19915;-52
2023/08/31 05:43:13;;;;;;;;;;;16.10;64.50;;;12.05;100.00;95278.16;5029755;28;19915;-51
2023/08/31 05:45:39;;;;;;;;;;;16.10;64.50;;;12.07;100.00;95283.22;5021148;28;19920;-48
2023/08/31 05:48:05;;;;;;;;;;;16.10;64.50;;;12.09;100.00;95281.84;5030739;28;19909;-46
2023/08/31 05:50:31;;;;;;;;;;;16.20;64.60;;;12.15;100.00;95282.59;5031764;28;19936;-46
2023/08/31 05:52:58;;;;;;;;;;;16.30;64.40;;;12.20;100.00;95293.25;5014999;28;19926;-46
2023/08/31 05:55:24;;;;;;;;;;;16.40;64.40;;;12.25;100.00;95296.69;5030961;28;19960;-48
2023/08/31 05:57:50;;;;;;;;;;;16.50;64.30;;;12.33;100.00;95294.47;5034625;28;20401;-49
2023/08/31 06:00:17;;;;;;;;;;;16.60;64.40;;;12.41;100.00;95301.84;5022809;28;19932;-48
2023/08/31 06:02:46;;;;;;;;;;;16.70;64.30;;;12.42;100.00;95306.13;5023591;28;19917;-48
2023/08/31 06:05:12;;;;;;;;;;;16.80;64.30;;;12.44;100.00;95310.13;5029905;28;19912;-47
2023/08/31 06:07:39;;;;;;;;;;;16.90;64.30;;;12.52;100.00;95305.22;5024191;28;20000;-47
2023/08/31 06:10:06;;;;;;;;;;;17.00;64.20;;;12.55;100.00;95304.66;5014610;28;19909;-47
2023/08/31 06:12:31;;;;;;;;;;;17.00;64.10;;;12.58;100.00;95315.56;5028111;28;19908;-48
2023/08/31 06:14:57;;;;;;;;;;;17.10;64.00;;;12.59;100.00;95306.47;5031537;28;19908;-47
2023/08/31 06:17:23;;;;;;;;;;;17.10;63.90;;;12.64;100.00;95322.47;5014055;28;19909;-49
2023/08/31 06:19:49;;;;;;;;;;;17.10;63.90;;;12.70;100.00;95328.53;5020703;28;19936;-50
2023/08/31 06:22:15;;;;;;;;;;;17.20;63.90;;;12.74;100.00;95319.66;5023033;28;19924;-48
2023/08/31 06:24:42;;;;;;;;;;;17.20;64.00;;;12.81;100.00;95319.31;5033258;28;20371;-51
2023/08/31 06:27:07;;;;;;;;;;;17.30;64.00;;;12.85;100.00;95323.03;5024730;28;19959;-49
2023/08/31 06:29:33;;;;;;;;;;;17.40;64.00;;;12.92;100.00;95326.16;5026760;28;20347;-53
2023/08/31 06:31:59;;;;;;;;;;;17.50;63.90;;;13.02;100.00;95329.78;5014444;28;20371;-47
2023/08/31 06:34:25;;;;;;;;;;;17.60;63.90;;;13.07;100.00;95335.88;5027364;28;19909;-48
2023/08/31 06:36:50;;;;;;;;;;;17.60;63.80;;;13.10;100.00;95332.63;5022152;28;20421;-47
2023/08/31 06:39:16;;;;;;;;;;;17.70;63.80;;;13.11;100.00;95328.88;5020621;28;19908;-48
2023/08/31 06:41:42;;;;;;;;;;;17.80;63.70;;;13.15;100.00;95337.13;5028125;28;19924;-49
2023/08/31 06:44:07;;;;;;;;;;;17.80;63.60;;;13.18;100.00;95331.19;5031941;28;19962;-53
2023/08/31 06:46:37;;;;;;;;;;;17.80;63.50;;;13.26;100.00;95327.91;5021744;28;20285;-49
2023/08/31 06:49:06;;;;;;;;;;;17.90;64.30;;;13.26;100.00;95341.28;5032867;28;19999;-53
2023/08/31 06:51:33;;;;;;;;;;;18.00;63.60;;;13.32;100.00;95334.00;5025312;28;19913;-50
2023/08/31 06:54:05;;;;;;;;;;;18.00;63.40;;;13.35;100.00;95344.94;5017034;28;20316;-47
2023/08/31 06:56:35;;;;;;;;;;;18.10;63.40;;;13.46;100.00;95350.94;5013492;28;19924;-49
2023/08/31 06:59:02;;;;;;;;;;;18.20;63.40;;;13.53;100.00;95354.03;5026976;28;19909;-50
2023/08/31 07:01:29;;;;;;;;;;;18.20;63.30;;;13.57;100.00;95359.59;5020668;28;20410;-49
2023/08/31 07:03:55;;;;;;;;;;;18.20;63.30;;;13.54;100.00;95358.31;5029498;28;19912;-48
2023/08/31 07:06:21;;;;;;;;;;;18.20;63.20;;;13.61;100.00;95357.97;5032162;28;19961;-50
2023/08/31 07:08:47;;;;;;;;;;;18.30;63.20;;;13.67;100.00;95361.38;5025782;28;19941;-48
2023/08/31 07:11:14;;;;;;;;;;;18.50;63.20;;;13.72;100.00;95358.59;5026498;28;19943;-47
2023/08/31 07:13:41;;;;;;;;;;;18.50;63.10;;;13.79;100.00;95351.03;5032004;28;19909;-48
2023/08/31 07:16:07;;;;;;;;;;;18.60;63.00;;;13.84;100.00;95358.97;5019991;28;19909;-47
2023/08/31 07:18:33;;;;;;;;;;;18.70;63.00;;;13.86;100.00;95360.28;5027787;28;19952;-52
2023/08/31 07:20:59;;;;;;;;;;;18.80;62.80;;;13.92;100.00;95354.84;5009103;28;20389;-49
2023/08/31 07:23:25;;;;;;;;;;;18.90;62.70;;;14.02;100.00;95366.19;5018927;28;19999;-49
2023/08/31 07:25:50;;;;;;;;;;;19.00;62.60;;;14.39;100.00;95367.22;5019683;28;19909;-50
2023/08/31 07:28:17;;;;;;;;;;;19.50;62.60;;;14.62;100.00;95383.47;5025914;28;19955;-47
2023/08/31 07:30:43;;;;;;;;;;;19.90;62.40;;;14.86;100.00;95381.44;5025370;28;20004;-53
2023/08/31 07:33:10;;;;;;;;;;;20.20;62.10;;;15.00;100.00;95392.97;5025939;28;20011;-55
2023/08/31 07:35:36;;;;;;;;;;;20.50;61.90;;;15.22;100.00;95383.44;5025054;28;20288;-52
2023/08/31 07:38:01;;;;;;;;;;;20.80;61.50;;;15.48;100.00;95387.22;5018830;28;19914;-54
2023/08/31 07:40:27;;;;;;;;;;;21.10;61.10;;;15.70;99.11;95388.41;5025784;28;19959;-51
2023/08/31 07:42:53;;;;;;;;;;;21.40;60.70;;;15.91;95.85;95394.13;5024489;28;20425;-54
2023/08/31 07:45:18;;;;;;;;;;;21.60;60.40;;;16.12;93.41;95399.84;5019281;28;19909;-52
2023/08/31 07:47:44;;;;;;;;;;;21.70;60.10;;;16.16;88.19;95392.75;5025387;28;19975;-51
2023/08/31 07:50:10;;;;;;;;;;;21.90;59.90;;;16.21;91.28;95403.38;5012921;28;20419;-52
2023/08/31 07:52:37;;;;;;;;;;;21.90;60.30;;;16.19;90.44;95403.69;5025628;28;20248;-54
2023/08/31 07:55:04;;;;;;;;;;;21.90;59.50;;;16.20;90.13;95412.53;5025043;28;19917;-54
2023/08/31 07:57:30;;;;;;;;;;;21.80;59.30;;;16.22;90.52;95412.25;5019581;28;19908;-54
2023/08/31 07:59:55;;;;;;;;;;;21.70;59.30;;;16.30;90.27;95411.53;5022960;28;19919;-50
2023/08/31 08:02:21;;;;;;;;;;;21.70;59.30;;;16.12;89.31;95413.28;5018840;28;19920;-51
2023/08/31 08:04:47;;;;;;;;;;;21.70;59.30;;;16.04;90.47;95405.91;5021908;28;20352;-48
2023/08/31 08:07:12;;;;;;;;;;;21.70;59.00;;;16.13;88.84;95409.47;5031004;28;20275;-52
2023/08/31 08:09:38;;;;;;;;;;;21.90;58.80;;;16.21;88.08;95413.34;5018692;28;20011;-49
2023/08/31 08:12:04;;;;;;;;;;;22.00;58.60;;;16.41;88.59;95415.53;5031393;28;19956;-47
2023/08/31 08:14:30;;;;;;;;;;;22.30;58.50;;;16.55;87.93;95418.97;5031555;28;19969;-50
2023/08/31 08:16:56;;;;;;;;;;;22.50;58.30;;;16.56;85.87;95427.84;5019297;28;19913;-49
2023/08/31 08:19:25;;;;;;;;;;;22.60;58.20;;;16.67;86.89;95431.84;5031028;28;19916;-50
2023/08/31 08:21:51;;;;;;;;;;;22.60;58.00;;;16.83;86.82;95426.94;5019480;28;19916;-52
2023/08/31 08:24:17;;;;;;;;;;;22.60;58.00;;;16.78;83.86;95433.22;5024735;28;19978;-52
2023/08/31 08:26:44;;;;;;;;;;;22.60;57.80;;;16.79;84.75;95429.44;5027161;28;20446;-52
2023/08/31 08:29:10;;;;;;;;;;;22.50;58.20;;;16.66;81.87;95427.56;5015373;28;20006;-54
2023/08/31 08:31:35;;;;;;;;;;;22.50;57.50;;;16.49;81.68;95436.34;5033922;28;19959;-55
2023/08/31 08:34:03;;;;;;;;;;;22.40;57.30;;;16.58;84.23;95433.72;5025486;28;19909;-51
2023/08/31 08:36:29;;;;;;;;;;;22.30;57.20;;;16.68;82.09;95444.22;5019378;28;20394;-52
2023/08/31 08:38:55;;;;;;;;;;;22.40;57.30;;;16.70;83.41;95446.59;5030033;28;19909;-53
2023/08/31 08:41:24;;;;;;;;;;;22.40;57.10;;;16.87;81.92;95446.72;5020246;28;19913;-52
2023/08/31 08:43:51;;;;;;;;;;;22.50;57.00;;;16.98;82.15;95452.63;5031659;28;19916;-52
2023/08/31 08:46:17;;;;;;;;;;;22.60;56.90;;;17.09;82.22;95453.97;5023184;28;20279;-52
2023/08/31 08:48:47;;;;;;;;;;;22.70;56.90;;;17.20;81.94;95459.88;5019132;28;19909;-52
2023/08/31 08:51:14;;;;;;;;;;;22.80;56.80;;;17.35;78.88;95456.78;5026435;28;19916;-52
2023/08/31 08:53:43;;;;;;;;;;;22.90;56.70;;;17.35;78.44;95462.97;5031605;28;20270;-49
2023/08/31 08:56:09;;;;;;;;;;;22.90;56.60;;;17.34;80.18;95461.38;5025522;28;19925;-51
2023/08/31 08:58:35;;;;;;;;;;;22.90;56.50;;;17.35;75.84;95460.25;5011266;28;19916;-47
2023/08/31 09:01:03;;;;;;;;;;;22.90;56.50;;;17.33;77.53;95459.00;5018023;28;19920;-48
2023/08/31 09:03:29;;;;;;;;;;;22.90;56.40;;;17.44;78.01;95451.44;5027611;28;19966;-47
2023/08/31 09:05:55;;;;;;;;;;;23.10;56.30;;;17.62;76.78;95458.47;5027071;28;20406;-51
2023/08/31 09:08:29;;;;;;;;;;;23.50;56.10;;;17.53;73.27;95461.13;5019392;28;20363;-55
2023/08/31 09:10:58;;;;;;;;;;;23.80;55.60;;;17.62;73.52;95466.56;5015922;28;19916;-53
2023/08/31 09:13:29;;;;;;;;;;;23.80;55.10;;;17.73;71.97;95467.84;5025585;28;19916;-50
2023/08/31 09:15:58;;;;;;;;;;;23.70;55.00;;;17.80;74.17;95462.06;5027428;28;19915;-48
2023/08/31 09:18:32;;;;;;;;;;;23.60;55.00;;;17.83;72.33;95463.31;5023300;28;19936;-53
2023/08/31 09:21:00;;;;;;;;;;;23.70;54.90;;;17.90;73.91;95460.97;5022055;28;19948;-52
2023/08/31 09:23:26;;;;;;;;;;;23.80;54.80;;;17.83;70.08;95464.13;5027808;28;19909;-48
2023/08/31 09:25:55;;;;;;;;;;;23.90;54.40;;;17.89;71.49;95464.75;5021768;28;20379;-47
2023/08/31 09:28:23;;;;;;;;;;;24.10;54.10;;;17.96;71.60;95470.50;5027922;28;19954;-48
2023/08/31 09:30:52;;;;;;;;;;;24.30;53.90;;;18.15;70.79;95470.22;5027548;28;20375;-50
2023/08/31 09:33:20;;;;;;;;;;;24.40;53.60;;;18.27;70.45;95478.47;5023484;28;19966;-48
2023/08/31 09:35:51;;;;;;;;;;;24.60;53.50;;;18.36;70.30;95464.97;5020146;28;19909;-48
2023/08/31 09:38:18;;;;;;;;;;;24.70;53.40;;;18.40;69.24;95471.34;5023837;28;19909;-49
2023/08/31 09:40:44;;;;;;;;;;;24.80;53.10;;;18.65;68.81;95467.06;5021595;28;20043;-54
2023/08/31 09:43:09;;;;;;;;;;;24.90;53.10;;;18.47;70.00;95472.44;5024801;28;20003;-52
2023/08/31 09:45:37;;;;;;;;;;;25.00;53.10;;;18.41;70.35;95468.31;5028068;28;20004;-48
2023/08/31 09:48:04;;;;;;;;;;;25.00;52.90;;;18.49;67.59;95472.94;5013481;28;19909;-48
2023/08/31 09:50:32;;;;;;;;;;;25.00;52.80;;;18.57;68.22;95474.03;5017708;28;19919;-48
2023/08/31 09:53:03;;;;;;;;;;;25.00;52.60;;;18.74;67.80;95470.56;5025267;28;20414;-47
2023/08/31 09:55:32;;;;;;;;;;;25.10;52.60;;;18.89;66.42;95467.34;5030000;28;19917;-51
2023/08/31 09:58:00;;;;;;;;;;;25.20;52.30;;;19.05;67.38;95466.84;5034426;28;19919;-51
2023/08/31 10:00:31;;;;;;;;;;;25.40;52.20;;;19.11;64.56;95460.97;5032952;28;19908;-48
2023/08/31 10:03:02;;;;;;;;;;;25.60;51.90;;;19.09;66.49;95471.31;5021522;28;20378;-48
2023/08/31 10:05:28;;;;;;;;;;;25.70;51.80;;;19.25;66.41;95466.19;5032597;28;20318;-48
2023/08/31 10:07:54;;;;;;;;;;;25.80;51.60;;;19.28;62.57;95462.03;5034440;28;20399;-48
2023/08/31 10:10:22;;;;;;;;;;;25.80;51.60;;;19.39;61.23;95463.25;5021030;28;19915;-54
2023/08/31 10:12:54;;;;;;;;;;;25.80;51.60;;;19.46;62.89;95468.97;5033144;28;19920;-53
2023/08/31 10:15:20;;;;;;;;;;;25.80;51.40;;;19.56;62.85;95457.81;5027260;28;19909;-56
2023/08/31 10:17:47;;;;;;;;;;;25.90;51.40;;;19.58;62.35;95463.66;5027672;28;20380;-55
2023/08/31 10:20:17;;;;;;;;;;;25.90;51.20;;;19.56;61.97;95463.22;5034336;28;19915;-57
2023/08/31 10:22:44;;;;;;;;;;;25.80;51.10;;;19.36;63.15;95461.22;5019367;28;19913;-54
2023/08/31 10:25:11;;;;;;;;;;;25.70;50.90;;;19.35;65.13;95470.44;5025325;28;19908;-57
2023/08/31 10:27:45;;;;;;;;;;;25.60;51.00;;;19.29;62.76;95464.41;5021061;28;19913;-52
2023/08/31 10:30:24;;;;;;;;;;;25.30;51.00;;;19.14;63.24;95465.72;5031952;28;20293;-53
2023/08/31 10:33:07;;;;;;;;;;;25.10;51.10;;;19.06;62.95;95453.03;5020873;28;20034;-52
2023/08/31 10:35:49;;;;;;;;;;;24.90;51.10;;;18.96;64.41;95464.19;5033028;28;19912;-56
2023/08/31 10:38:15;;;;;;;;;;;24.70;51.20;;;18.82;64.25;95458.97;5034327;28;19947;-52
2023/08/31 10:40:42;;;;;;;;;;;24.60;51.30;;;18.62;65.76;95465.00;5033709;28;19908;-55
2023/08/31 10:43:17;;;;;;;;;;;24.50;51.40;;;18.56;65.22;95464.34;5024618;28;20321;-55
2023/08/31 10:45:46;;;;;;;;;;;24.20;51.40;;;18.54;66.67;95469.25;5029954;28;19932;-55
2023/08/31 10:48:14;;;;;;;;;;;24.10;51.60;;;18.50;64.40;95458.31;5032420;28;26632;-57
2023/08/31 10:50:44;;;;;;;;;;;24.00;51.60;;;18.60;65.73;95451.81;5015251;28;19909;-54
2023/08/31 10:53:12;;;;;;;;;;;24.20;51.60;;;18.60;63.04;95451.03;5024721;28;20011;-55
2023/08/31 10:55:55;;;;;;;;;;;24.30;51.40;;;18.64;66.54;95460.84;5037384;23;19928;-42
2023/08/31 10:58:21;;;;;;;;;;;24.40;51.20;;;18.68;65.69;95467.22;5012759;28;20020;-50
2023/08/31 11:00:56;;;;;;;;;;;24.40;51.20;;;18.72;65.26;95460.09;5023023;28;20007;-42
2023/08/31 11:03:22;;;;;;;;;;;24.60;51.00;;;18.79;65.10;95458.81;5012710;28;19913;-47
2023/08/31 11:05:54;;;;;;;;;;;24.90;50.70;;;19.00;64.74;95458.94;5029092;28;20271;-43
2023/08/31 11:08:26;;;;;;;;;;;25.30;50.50;;;19.24;62.65;95459.19;5032796;28;19909;-47
2023/08/31 11:10:53;;;;;;;;;;;25.60;50.40;;;19.41;62.14;95458.34;5032566;28;20375;-47
2023/08/31 11:13:20;;;;;;;;;;;25.90;50.30;;;19.59;63.19;95454.44;5029497;28;19970;-46
2023/08/31 11:15:47;;;;;;;;;;;26.10;50.00;;;19.74;62.29;95446.94;5031765;28;20003;-45